This is the latest recevied weather packets stored in our database for station/object SQ5RTW-1. If no packets are shown the sender has not sent any weather packets the latest 10 day(s).
| Time | Temp. | Humidity | Pressure | Rain* | Wind** | Luminosity | Snow |
|---|---|---|---|---|---|---|---|
| 1777491769 | 4.44° C | 62% | 1031.9 hPa | - | - | - | - |
| 1777490868 | 4.44° C | 62% | 1031.9 hPa | - | - | - | - |
| 1777489967 | 6.11° C | 59% | 1031.7 hPa | - | - | - | - |
| 1777489949 | 5° C | 59% | 1031.8 hPa | - | - | - | - |
| 1777489048 | 5° C | 58% | 1031.7 hPa | - | - | - | - |
| 1777488147 | 5.56° C | 54% | 1031.4 hPa | - | - | - | - |
| 1777487247 | 9.44° C | 53% | 1031.4 hPa | - | - | - | - |
| 1777487222 | 6.67° C | 53% | 1031.4 hPa | - | - | - | - |
| 1777486321 | 7.78° C | 47% | 1031.3 hPa | - | - | - | - |
| 1777485420 | 8.33° C | 45% | 1031.1 hPa | - | - | - | - |
| 1777484519 | 8.33° C | 43% | 1031.1 hPa | - | - | - | - |
| 1777483618 | 8.89° C | 41% | 1031 hPa | - | - | - | - |
| 1777482717 | 10° C | 39% | 1030.9 hPa | - | - | - | - |
| 1777481816 | 9.44° C | 39% | 1030.9 hPa | - | - | - | - |
| 1777480916 | 14.44° C | 30% | 1030.8 hPa | - | - | - | - |
| 1777480015 | 18.33° C | 25% | 1031 hPa | - | - | - | - |
| 1777479113 | 17.78° C | 26% | 1031.1 hPa | - | - | - | - |
| 1777478212 | 20° C | 24% | 1031.3 hPa | - | - | - | - |
| 1777477312 | 11.67° C | 37% | 1030.9 hPa | - | - | - | - |
| 1777476411 | 16.67° C | 32% | 1031.4 hPa | - | - | - | - |
| 1777475510 | 11.11° C | 38% | 1031 hPa | - | - | - | - |
| 1777474609 | 12.22° C | 35% | 1031 hPa | - | - | - | - |
| 1777473708 | 11.11° C | 35% | 1030.9 hPa | - | - | - | - |
| 1777472807 | 18.33° C | 28% | 1031.2 hPa | - | - | - | - |
| 1777471906 | 11.67° C | 36% | 1030.9 hPa | - | - | - | - |
* Rain since midnight (hover to see other rain measurements)
** Current wind speed in m/s (hover to see current wind gust speed)